Terminal Aerodrome Forecast
Issued by NWS Jacksonville, FL

Home | Current Version | Previous Version | Text Only | Print | Product List | Glossary On
Versions: 1 2 3 4 5 6 7 8 9 10 11 12 13 14
000
FTUS42 KJAX 201122
TAFJAX
TAF
KJAX 201122Z 2012/2112 03015G25KT P6SM SCT040 BKN060
     FM201400 05017G27KT P6SM BKN025
     FM210100 05010G18KT P6SM SCT015 BKN025=

USA.gov is the U.S. government's official web portal to all federal, state and local government web resources and services.